SGAS/ASU METAR and TAF weather

Enter ICAO airport designator
Station Type Date Time Source
SGAS METAR 2017/04/25 04:00 UTC NOAA

SGAS 250400Z 05009KT 9999 TS FEW033 FEW040CB 25/20 Q1004


Station Type Date Time Source
SGAS Decoded METAR 2017/04/25 04:00 UTC NOAA

Asuncion / Aeropuerto, Paraguay (SGAS) 25-16S 057-38W 101M
Apr 25, 2017 - 12:00 AM EDT / 2017.04.25 0400 UTC
Wind: from the NE (050 degrees) at 10 MPH (9 KT):0
Visibility: greater than 7 mile(s):0
Sky conditions: mostly clear
Weather: thunder; Cumulonimbus clouds observed
Temperature: 77 F (25 C)
Dew Point: 68 F (20 C)
Relative Humidity: 73%
Pressure (altimeter): 29.65 in. Hg (1004 hPa)
ob: SGAS 250400Z 05009KT 9999 TS FEW033 FEW040CB 25/20 Q1004
cycle: 4

Station Type Date Time Source
SGAS TAF 2017/04/25 06:16 UTC NOAA

TAF SGAS 250305Z 2506/2606 04008KT 9999 TS FEW033 FEW040CB TX26/2519Z TN20/2510Z
BECMG 2507/2510 19010KT 5000 TSRA OVC015 FEW040CB
BECMG 2511/2513 7000 RA BKN010
BECMG 2514/2516 18008KT 6000 TSRA 9999 BKN015 FEW040CB
BECMG 2517/2519 24008KT 9999 BKN015
BECMG 2520/2523 18010KT 5000 TSRA BKN015 FEW040CB


Example: see airport list